Abraham, Utah
Current Conditions -  °F | °C
As of 8:15 PM on Friday 31 Oct 2014 (Local Time) from KDTA Reporting Station
Clear Clear  
Wind Chill: 62°   Ceiling: Unl
Heat Index: 62°   Visibility: 10mi
Dew Point: 27°   Wind: 6mph
Humidity: 26%   Direction: 170°S
Pressure: 29.86"   Gusts: NA
Location:  39.4463°N, 112.85°W
Report Text: KDTA 010215Z AUTO 17005KT 10SM CLR 17/M03 A2986 RMK AO1 T01691030
Loading
Personal Weather Stations






























Interactive Weather Map
Tropical Storm Tracking
New forecast layout! Learn more

10-Day Weather Forecast

Advertisements
Track Severe Weather on mobile